Time;durP1;ratioP1;P1;durP2;ratioP2;P2;SDS_P1;SDS_P2;PMS_P1;PMS_P2;Temp;Humidity;BMP_temperature;BMP_pressure;BME280_temperature;BME280_humidity;BME280_pressure;Samples;Min_cycle;Max_cycle;Signal;HPM_P1;HPM_P2
2023/12/01 00:01:25;;;;;;;47.17;28.98;;;;;;;5.93;92.92;99575.22;5042853;28;20060;-62
2023/12/01 00:03:52;;;;;;;43.22;27.38;;;;;;;5.78;92.17;99572.03;5041323;28;20049;-62
2023/12/01 00:06:20;;;;;;;43.60;28.13;;;;;;;5.70;92.43;99566.19;5041402;28;20424;-61
2023/12/01 00:08:47;;;;;;;41.42;26.48;;;;;;;5.87;92.18;99570.19;5048179;28;20056;-61
2023/12/01 00:11:14;;;;;;;44.05;27.25;;;;;;;6.07;90.17;99567.78;5054841;28;20053;-61
2023/12/01 00:13:42;;;;;;;40.55;26.13;;;;;;;5.84;90.78;99568.09;5040058;28;20444;-62
2023/12/01 00:16:09;;;;;;;43.53;27.08;;;;;;;5.56;92.81;99567.38;5038095;28;20061;-62
2023/12/01 00:18:37;;;;;;;41.75;26.67;;;;;;;5.72;93.07;99574.88;5040001;28;20056;-61
2023/12/01 00:21:05;;;;;;;43.10;26.63;;;;;;;5.73;91.94;99573.78;5036471;28;20053;-62
2023/12/01 00:23:32;;;;;;;46.40;27.55;;;;;;;5.53;93.71;99570.69;5041606;28;20045;-61
2023/12/01 00:25:59;;;;;;;45.38;27.65;;;;;;;5.87;93.12;99567.47;5039725;28;20705;-61
2023/12/01 00:28:26;;;;;;;44.92;27.45;;;;;;;5.93;91.75;99571.72;5052696;28;20151;-61
2023/12/01 00:30:53;;;;;;;44.83;26.83;;;;;;;5.88;92.21;99572.63;5034652;28;20050;-61
2023/12/01 00:33:21;;;;;;;41.53;27.50;;;;;;;5.67;92.68;99579.66;5051604;28;20646;-61
2023/12/01 00:35:48;;;;;;;45.00;27.65;;;;;;;5.75;93.48;99576.19;5052110;28;20409;-62
2023/12/01 00:38:16;;;;;;;42.85;27.58;;;;;;;5.90;93.14;99578.59;5052149;28;20416;-60
2023/12/01 00:40:43;;;;;;;42.92;27.60;;;;;;;5.76;92.22;99575.06;5050615;28;20045;-61
2023/12/01 00:43:12;;;;;;;44.58;27.77;;;;;;;6.01;92.68;99577.22;5031600;28;20329;-60
2023/12/01 00:45:40;;;;;;;43.78;27.83;;;;;;;5.86;92.39;99585.00;5061886;28;20052;-60
2023/12/01 00:48:07;;;;;;;44.85;28.67;;;;;;;5.85;91.95;99580.63;5036699;28;20053;-61
2023/12/01 00:50:35;;;;;;;55.20;28.67;;;;;;;5.53;93.51;99587.06;5055914;28;20143;-62
2023/12/01 00:53:02;;;;;;;44.30;28.98;;;;;;;5.41;95.03;99595.81;5040343;28;20041;-62
2023/12/01 00:55:29;;;;;;;45.50;28.50;;;;;;;5.36;95.95;99584.19;5047449;28;20498;-62
2023/12/01 00:57:57;;;;;;;47.15;29.45;;;;;;;5.40;96.00;99591.47;5040656;28;20041;-62
2023/12/01 01:00:24;;;;;;;47.15;28.42;;;;;;;5.36;95.21;99589.66;5042253;28;20407;-61
2023/12/01 01:02:51;;;;;;;46.70;28.75;;;;;;;5.43;95.20;99587.31;5049939;28;20057;-61
2023/12/01 01:05:19;;;;;;;47.60;28.95;;;;;;;5.26;95.64;99587.97;5046167;28;20044;-62
2023/12/01 01:07:46;;;;;;;46.20;28.70;;;;;;;5.29;96.45;99581.06;5045100;28;20657;-63
2023/12/01 01:10:14;;;;;;;44.88;28.60;;;;;;;5.24;96.64;99584.72;5050126;28;20064;-61
2023/12/01 01:12:41;;;;;;;46.17;28.60;;;;;;;5.41;95.94;99584.06;5051232;28;20408;-61
2023/12/01 01:15:09;;;;;;;48.15;28.77;;;;;;;5.65;94.65;99579.97;5046899;28;20074;-63
2023/12/01 01:17:36;;;;;;;44.95;28.40;;;;;;;5.54;94.23;99575.84;5041311;28;20295;-61
2023/12/01 01:20:04;;;;;;;47.63;28.40;;;;;;;5.43;94.29;99579.13;5057953;28;20292;-61
2023/12/01 01:22:31;;;;;;;51.92;28.88;;;;;;;5.31;95.95;99584.31;5047903;28;20056;-61
2023/12/01 01:24:58;;;;;;;46.25;29.10;;;;;;;5.35;95.41;99580.63;5041671;28;20714;-63
2023/12/01 01:27:26;;;;;;;45.10;29.27;;;;;;;5.54;95.38;99577.78;5054074;28;20072;-63
2023/12/01 01:29:53;;;;;;;45.22;28.73;;;;;;;5.43;94.56;99581.84;5053771;28;20800;-62
2023/12/01 01:32:20;;;;;;;45.85;28.42;;;;;;;5.65;95.02;99588.16;5055394;28;20045;-62
2023/12/01 01:34:47;;;;;;;42.75;26.90;;;;;;;5.54;93.66;99594.16;5051851;28;20092;-61
2023/12/01 01:37:15;;;;;;;45.67;28.63;;;;;;;5.44;95.02;99592.47;5054775;28;20053;-62
2023/12/01 01:39:42;;;;;;;50.92;29.70;;;;;;;5.74;94.49;99596.41;5036550;28;20045;-61
2023/12/01 01:42:09;;;;;;;46.45;29.77;;;;;;;5.29;95.63;99601.00;5034626;28;20511;-61
2023/12/01 01:44:36;;;;;;;47.92;28.92;;;;;;;5.35;96.43;99598.97;5051303;28;20060;-62
2023/12/01 01:47:04;;;;;;;49.08;28.25;;;;;;;5.42;95.89;99597.41;5048042;28;20056;-61
2023/12/01 01:49:31;;;;;;;48.40;28.83;;;;;;;5.52;95.74;99599.94;5042041;28;20045;-62
2023/12/01 01:51:59;;;;;;;49.85;31.10;;;;;;;5.53;94.36;99592.53;5060616;28;20052;-62
2023/12/01 01:54:27;;;;;;;47.88;29.85;;;;;;;5.20;95.45;99600.09;5047845;28;20050;-63
2023/12/01 01:56:55;;;;;;;49.10;29.80;;;;;;;5.19;96.23;99594.94;5048792;28;20063;-64
2023/12/01 01:59:22;;;;;;;46.78;29.40;;;;;;;5.28;96.09;99593.91;5012797;28;20049;-61
2023/12/01 02:01:51;;;;;;;47.88;28.02;;;;;;;5.21;95.13;99601.69;5056190;28;20056;-63
2023/12/01 02:04:18;;;;;;;49.92;30.02;;;;;;;5.21;95.49;99601.69;5065692;28;20058;-62
2023/12/01 02:06:46;;;;;;;46.65;28.80;;;;;;;5.17;95.85;99608.91;5053349;28;20048;-61
2023/12/01 02:09:13;;;;;;;46.63;28.55;;;;;;;5.29;95.43;99608.38;5035902;28;20063;-62
2023/12/01 02:11:42;;;;;;;45.30;28.15;;;;;;;5.36;93.95;99601.38;5049469;28;20065;-61
2023/12/01 02:14:09;;;;;;;46.33;29.10;;;;;;;5.35;94.75;99602.47;5038365;28;20061;-61
2023/12/01 02:16:45;;;;;;;44.30;28.73;;;;;;;5.24;94.99;99606.56;5032557;28;20049;-62
2023/12/01 02:19:13;;;;;;;46.67;30.08;;;;;;;5.45;95.35;99606.94;5032142;28;20070;-62
2023/12/01 02:21:45;;;;;;;46.55;27.77;;;;;;;5.58;94.32;99614.28;5047963;28;20061;-62
2023/12/01 02:24:13;;;;;;;47.65;28.02;;;;;;;5.55;93.42;99607.50;5048580;28;20053;-63
2023/12/01 02:26:40;;;;;;;45.50;29.20;;;;;;;5.52;93.58;99612.78;5053526;28;20048;-64
2023/12/01 02:29:08;;;;;;;46.33;29.13;;;;;;;5.69;92.95;99616.47;5067405;28;20044;-64
2023/12/01 02:31:35;;;;;;;45.55;28.98;;;;;;;5.70;92.31;99614.56;5052351;28;20040;-65
2023/12/01 02:34:03;;;;;;;47.45;30.08;;;;;;;5.62;92.95;99613.38;5054565;28;20071;-63
2023/12/01 02:36:31;;;;;;;45.67;28.90;;;;;;;5.61;92.96;99606.25;5055270;28;20057;-63
2023/12/01 02:38:58;;;;;;;46.80;28.88;;;;;;;5.48;93.08;99604.41;5054818;28;20052;-62
2023/12/01 02:41:26;;;;;;;44.70;28.45;;;;;;;5.21;94.08;99614.56;5046722;28;20045;-63
2023/12/01 02:43:54;;;;;;;47.63;29.73;;;;;;;5.28;94.77;99617.69;5037821;28;20048;-63
2023/12/01 02:46:22;;;;;;;46.13;28.17;;;;;;;5.25;94.49;99613.63;5047031;28;20354;-64
2023/12/01 02:48:51;;;;;;;49.05;30.25;;;;;;;5.26;94.26;99620.72;5048723;28;20048;-63
2023/12/01 02:51:18;;;;;;;51.50;28.98;;;;;;;5.10;95.43;99616.69;5081917;28;20040;-63
2023/12/01 02:53:53;;;;;;;45.15;29.00;;;;;;;5.33;94.81;99620.31;5073298;28;20057;-67
2023/12/01 02:56:44;;;;;;;43.88;29.10;;;;;;;5.33;94.15;99623.84;5070369;28;20059;-66
2023/12/01 02:59:15;;;;;;;46.45;30.33;;;;;;;5.09;94.63;99625.19;5051960;28;20053;-65
2023/12/01 03:01:44;;;;;;;50.03;30.35;;;;;;;5.11;95.31;99617.50;5062767;28;20049;-64
2023/12/01 03:04:27;;;;;;;47.03;29.23;;;;;;;5.29;93.50;99619.28;5071729;28;20071;-65
2023/12/01 03:07:18;;;;;;;45.97;30.63;;;;;;;5.31;92.36;99628.81;5073066;28;20059;-64
2023/12/01 03:10:06;;;;;;;50.97;30.67;;;;;;;5.42;91.28;99623.94;5057670;28;20048;-65
2023/12/01 03:12:59;;;;;;;44.17;29.42;;;;;;;4.91;92.27;99623.34;5074546;28;20408;-65
2023/12/01 03:15:30;;;;;;;45.03;30.05;;;;;;;4.98;92.73;99630.03;5052919;28;20057;-65
2023/12/01 03:17:58;;;;;;;46.17;30.00;;;;;;;4.87;92.69;99644.97;5044653;28;20049;-66
2023/12/01 03:20:31;;;;;;;46.53;31.10;;;;;;;4.89;92.86;99636.47;5036071;28;20521;-65
2023/12/01 03:22:59;;;;;;;;;;;;;;;4.99;92.57;99639.81;5029812;28;20507;-63
2023/12/01 03:25:33;;;;;;;47.15;29.73;;;;;;;4.83;92.75;99637.72;5041105;28;20494;-66
2023/12/01 03:28:50;;;;;;;47.67;30.30;;;;;;;4.98;92.64;99634.66;5054127;28;20049;-64
2023/12/01 03:31:19;;;;;;;49.10;29.73;;;;;;;5.22;91.58;99646.19;5050406;28;20056;-62
2023/12/01 03:34:27;;;;;;;50.53;32.33;;;;;;;5.11;92.63;99639.34;5049248;28;20527;-63
2023/12/01 03:37:07;;;;;;;48.63;31.90;;;;;;;4.89;92.50;99644.66;5036344;28;20037;-63
2023/12/01 03:40:31;;;;;;;53.60;31.95;;;;;;;4.86;93.36;99642.56;5048136;28;20049;-63
2023/12/01 03:43:18;;;;;;;48.17;30.98;;;;;;;4.94;92.74;99641.84;5030112;28;20061;-63
2023/12/01 03:46:31;;;;;;;48.35;31.05;;;;;;;5.29;92.47;99632.94;5034154;28;20421;-63
2023/12/01 03:49:51;;;;;;;49.60;30.73;;;;;;;5.39;90.50;99638.19;5031481;28;20061;-62
2023/12/01 03:52:28;;;;;;;;;;;;;;;5.40;90.30;99639.81;5067619;28;20037;-61
2023/12/01 03:54:55;;;;;;;48.80;28.90;;;;;;;5.49;89.79;99646.16;5074040;28;19928;-61
2023/12/01 03:57:22;;;;;;;47.78;30.95;;;;;;;5.42;89.64;99645.78;5038587;28;20053;-63
2023/12/01 03:59:49;;;;;;;46.92;29.30;;;;;;;5.34;89.66;99657.41;5052152;28;20053;-62
2023/12/01 04:02:17;;;;;;;47.50;28.95;;;;;;;5.06;90.31;99669.44;5051815;28;20064;-62
2023/12/01 04:04:45;;;;;;;47.17;29.15;;;;;;;5.03;91.09;99670.03;5052453;28;20078;-61
2023/12/01 04:07:12;;;;;;;44.22;28.83;;;;;;;4.86;91.07;99667.09;5050989;28;20412;-61
2023/12/01 04:09:41;;;;;;;45.72;28.48;;;;;;;5.02;91.12;99666.50;5036820;28;20057;-64
2023/12/01 04:12:20;;;;;;;46.83;28.98;;;;;;;5.04;90.42;99660.75;5047035;28;20056;-65
2023/12/01 04:14:49;;;;;;;44.00;28.17;;;;;;;5.20;89.52;99657.41;5052994;28;20772;-67
2023/12/01 04:17:32;;;;;;;40.28;25.50;;;;;;;5.07;88.97;99660.16;5051757;28;20518;-65
2023/12/01 04:20:20;;;;;;;43.42;25.75;;;;;;;5.27;88.63;99649.63;5053236;28;20056;-64
2023/12/01 04:22:57;;;;;;;46.05;26.40;;;;;;;5.37;87.05;99654.09;5052381;28;20151;-65
2023/12/01 04:25:25;;;;;;;43.42;26.75;;;;;;;5.35;87.90;99665.28;5053454;28;20057;-64
2023/12/01 04:27:55;;;;;;;44.72;28.23;;;;;;;5.53;87.68;99660.81;5035385;28;20060;-65
2023/12/01 04:30:24;;;;;;;46.58;27.02;;;;;;;5.26;87.06;99664.41;5036084;28;20432;-63
2023/12/01 04:32:53;;;;;;;46.22;27.88;;;;;;;4.99;88.42;99674.47;5057322;28;20063;-61
2023/12/01 04:35:25;;;;;;;46.72;27.60;;;;;;;4.86;89.35;99670.66;5065994;28;20067;-62
2023/12/01 04:37:52;;;;;;;50.50;30.90;;;;;;;4.82;90.01;99688.72;5061108;28;20053;-61
2023/12/01 04:40:20;;;;;;;52.55;30.80;;;;;;;4.94;90.45;99678.13;5051958;28;20052;-61
2023/12/01 04:42:49;;;;;;;49.20;28.88;;;;;;;5.01;89.61;99669.53;5052826;28;20052;-62
2023/12/01 04:45:19;;;;;;;45.70;29.65;;;;;;;4.99;89.75;99671.75;5051943;28;20079;-61
2023/12/01 04:47:50;;;;;;;48.47;30.75;;;;;;;5.00;89.99;99671.47;5052829;28;20196;-61
2023/12/01 04:50:19;;;;;;;48.17;29.70;;;;;;;5.09;89.20;99668.84;5059518;28;20048;-62
2023/12/01 04:52:56;;;;;;;50.55;30.83;;;;;;;4.80;89.19;99685.47;5075698;28;20044;-62
2023/12/01 04:55:26;;;;;;;50.33;30.23;;;;;;;4.68;90.94;99678.88;5077100;28;20175;-61
2023/12/01 04:57:58;;;;;;;50.40;31.00;;;;;;;4.83;91.27;99675.91;5064793;28;20064;-62
2023/12/01 05:00:26;;;;;;;53.97;32.00;;;;;;;4.74;90.32;99677.69;5056263;28;20048;-63
2023/12/01 05:03:28;;;;;;;52.20;33.33;;;;;;;4.37;92.42;99675.88;5059449;28;20053;-61
2023/12/01 05:05:58;;;;;;;53.85;33.10;;;;;;;4.46;93.22;99677.63;5056504;28;20053;-63
2023/12/01 05:08:29;;;;;;;56.97;34.40;;;;;;;4.63;92.68;99678.97;5057007;28;20053;-62
2023/12/01 05:12:07;;;;;;;55.65;34.22;;;;;;;4.89;91.63;99697.31;5050484;28;20080;-64
2023/12/01 05:17:08;;;;;;;;;;;;;;;;;;;;;
2023/12/01 05:20:56;;;;;;;54.67;34.03;;;;;;;4.53;92.20;99709.97;4954563;28;20422;-64
2023/12/01 05:23:38;;;;;;;58.40;34.88;;;;;;;4.67;91.64;99704.53;4941728;29;20070;-63
2023/12/01 05:26:14;;;;;;;56.30;34.47;;;;;;;4.89;90.58;99691.88;4973455;28;20061;-63
2023/12/01 05:28:43;;;;;;;60.60;35.35;;;;;;;4.85;89.34;99696.28;5032380;28;20065;-63
2023/12/01 05:31:23;;;;;;;58.65;35.30;;;;;;;4.68;89.50;99696.06;5011202;28;20056;-65
2023/12/01 05:34:18;;;;;;;56.60;35.20;;;;;;;4.41;91.25;99698.72;5055531;28;20053;-63
2023/12/01 05:36:45;;;;;;;56.35;33.38;;;;;;;4.48;91.28;99716.28;5056966;28;20057;-61
2023/12/01 05:39:17;;;;;;;60.05;36.35;;;;;;;4.74;90.28;99715.88;5065490;28;20048;-66
2023/12/01 05:45:49;;;;;;;53.85;33.58;;;;;;;4.62;90.62;99701.91;5073750;28;20067;-66
2023/12/01 05:50:12;;;;;;;;;;;;;;;;;;;;;
2023/12/01 05:53:34;;;;;;;57.33;35.70;;;;;;;4.87;89.06;99709.63;5051846;28;20053;-66
2023/12/01 05:56:07;;;;;;;60.85;36.25;;;;;;;4.75;88.80;99704.66;5045281;28;20049;-64
2023/12/01 05:58:37;;;;;;;63.88;35.75;;;;;;;4.99;88.58;99709.94;5053945;28;20037;-63
2023/12/01 06:01:07;;;;;;;59.13;34.75;;;;;;;4.84;87.75;99710.25;5055052;28;20041;-64
2023/12/01 06:03:39;;;;;;;60.60;36.50;;;;;;;4.54;88.58;99717.03;5023236;28;20053;-63
2023/12/01 06:06:08;;;;;;;59.10;35.22;;;;;;;4.50;90.52;99707.81;5055464;28;20041;-60
2023/12/01 06:08:36;;;;;;;60.90;37.30;;;;;;;4.89;89.52;99710.97;5053353;28;20056;-61
2023/12/01 06:11:05;;;;;;;60.00;34.80;;;;;;;4.99;88.09;99718.13;5051054;28;20068;-62
2023/12/01 06:13:32;;;;;;;60.13;36.03;;;;;;;4.88;88.59;99720.25;5056331;28;20071;-61
2023/12/01 06:16:00;;;;;;;65.22;37.88;;;;;;;4.75;89.22;99718.31;5036460;28;20058;-61
2023/12/01 06:18:29;;;;;;;63.85;37.78;;;;;;;5.00;89.01;99725.22;5052442;28;20417;-62
2023/12/01 06:20:59;;;;;;;66.10;38.95;;;;;;;4.89;88.74;99730.06;5051975;28;20052;-61
2023/12/01 06:23:26;;;;;;;68.40;38.67;;;;;;;4.70;88.97;99729.31;5053608;28;20569;-63
2023/12/01 06:26:03;;;;;;;67.50;38.90;;;;;;;4.80;90.02;99714.66;5057775;28;20147;-63
2023/12/01 06:28:51;;;;;;;65.22;37.50;;;;;;;4.95;88.91;99715.19;5063849;28;20063;-64
2023/12/01 06:31:28;;;;;;;67.78;37.50;;;;;;;4.92;88.74;99729.44;5074630;28;20071;-64
2023/12/01 06:34:02;;;;;;;71.38;38.20;;;;;;;4.96;89.51;99735.13;5075367;28;20040;-63
2023/12/01 06:36:32;;;;;;;65.20;37.55;;;;;;;4.77;88.92;99726.19;5071065;28;20059;-62
2023/12/01 06:39:00;;;;;;;68.63;37.60;;;;;;;4.80;89.75;99728.31;5069858;28;20053;-63
2023/12/01 06:41:31;;;;;;;67.22;38.28;;;;;;;4.91;88.52;99727.84;5053471;28;20056;-64
2023/12/01 06:43:59;;;;;;;64.53;36.95;;;;;;;4.95;88.83;99725.31;5052875;28;20049;-63
2023/12/01 06:46:32;;;;;;;62.38;36.90;;;;;;;4.83;88.77;99733.19;5052137;28;20067;-65
2023/12/01 06:49:07;;;;;;;65.32;37.63;;;;;;;4.91;89.42;99735.22;5053879;28;20060;-63
2023/12/01 06:51:45;;;;;;;65.93;36.40;;;;;;;4.90;89.93;99733.59;5051974;28;20041;-64
2023/12/01 06:54:16;;;;;;;67.55;38.55;;;;;;;4.96;89.23;99735.13;5050834;28;20053;-62
2023/12/01 06:56:52;;;;;;;69.65;36.63;;;;;;;5.08;89.74;99746.34;5053362;28;20155;-64
2023/12/01 06:59:21;;;;;;;67.57;38.08;;;;;;;4.90;88.87;99736.34;5053664;28;20124;-61
2023/12/01 07:01:48;;;;;;;66.47;36.97;;;;;;;4.94;89.04;99737.34;5054130;28;20036;-61
2023/12/01 07:04:15;;;;;;;66.68;37.58;;;;;;;4.81;89.70;99743.59;5050267;28;20049;-62
2023/12/01 07:06:46;;;;;;;69.15;38.08;;;;;;;5.12;89.18;99731.81;5052986;28;20049;-62
2023/12/01 07:09:19;;;;;;;70.95;37.88;;;;;;;5.36;87.92;99728.91;5058534;28;20057;-63
2023/12/01 07:11:47;;;;;;;67.55;35.80;;;;;;;5.35;87.38;99730.03;5052374;28;20049;-61
2023/12/01 07:14:14;;;;;;;70.95;38.83;;;;;;;5.17;86.75;99736.38;5050592;28;20045;-62
2023/12/01 07:16:42;;;;;;;64.57;38.00;;;;;;;4.95;88.01;99742.50;5035162;28;20044;-62
2023/12/01 07:19:10;;;;;;;71.03;38.28;;;;;;;4.92;87.86;99753.19;5053054;28;20067;-63
2023/12/01 07:21:38;;;;;;;72.35;40.13;;;;;;;4.98;88.24;99752.00;5052828;28;20594;-62
2023/12/01 07:24:07;;;;;;;70.40;38.90;;;;;;;4.77;88.58;99753.47;5042277;28;20055;-62
2023/12/01 07:26:35;;;;;;;72.90;40.22;;;;;;;5.15;87.97;99749.50;5049105;28;20053;-63
2023/12/01 07:29:04;;;;;;;68.38;37.75;;;;;;;5.15;87.32;99755.78;5051731;28;20053;-64
2023/12/01 07:31:33;;;;;;;65.78;36.20;;;;;;;5.45;86.88;99747.00;5052271;28;20068;-59
2023/12/01 07:34:01;;;;;;;68.28;37.42;;;;;;;5.02;86.77;99751.09;5048975;28;20743;-62
2023/12/01 07:36:29;;;;;;;69.47;38.22;;;;;;;4.82;88.31;99747.91;5030719;28;20060;-61
2023/12/01 07:39:07;;;;;;;63.88;36.65;;;;;;;4.92;88.68;99753.19;5042301;28;20059;-61
2023/12/01 07:41:36;;;;;;;71.20;39.75;;;;;;;5.16;87.86;99751.13;5052174;28;20052;-62
2023/12/01 07:44:03;;;;;;;67.05;38.78;;;;;;;5.13;87.33;99746.25;5050458;28;20052;-61
2023/12/01 07:46:32;;;;;;;68.07;38.63;;;;;;;5.01;87.40;99743.22;5049577;28;20065;-61
2023/12/01 07:48:59;;;;;;;65.75;39.00;;;;;;;4.89;87.94;99742.88;5052508;28;20053;-62
2023/12/01 07:51:36;;;;;;;67.20;37.38;;;;;;;4.92;88.42;99751.28;5061766;28;20049;-63
2023/12/01 07:54:04;;;;;;;65.00;36.80;;;;;;;4.98;87.64;99746.53;5058109;28;21345;-62
2023/12/01 07:56:31;;;;;;;68.82;37.17;;;;;;;5.17;87.39;99755.47;5050321;28;20057;-62
2023/12/01 07:58:58;;;;;;;65.40;37.25;;;;;;;4.90;87.44;99763.63;5049632;28;20045;-61
2023/12/01 08:01:25;;;;;;;73.20;38.53;;;;;;;4.62;87.48;99773.59;5047538;28;20057;-62
2023/12/01 08:03:53;;;;;;;69.75;37.92;;;;;;;4.84;89.10;99768.34;5050146;28;20049;-63
2023/12/01 08:06:20;;;;;;;66.80;36.67;;;;;;;4.78;88.49;99774.19;5050240;28;20052;-61
2023/12/01 08:08:47;;;;;;;61.60;35.33;;;;;;;4.79;88.41;99773.06;5042863;28;20060;-63
2023/12/01 08:11:16;;;;;;;69.80;36.83;;;;;;;4.79;88.39;99768.44;5044406;28;20676;-63
2023/12/01 08:13:43;;;;;;;62.70;34.13;;;;;;;4.78;87.53;99774.19;5032655;28;20535;-63
2023/12/01 08:16:11;;;;;;;65.30;34.63;;;;;;;4.57;87.88;99779.97;5049904;28;20060;-64
2023/12/01 08:18:40;;;;;;;64.60;35.50;;;;;;;4.43;88.12;99783.72;5049284;28;20055;-63
2023/12/01 08:21:08;;;;;;;68.15;37.88;;;;;;;4.35;89.09;99787.94;5043947;28;20048;-63
2023/12/01 08:23:36;;;;;;;63.75;35.45;;;;;;;4.41;89.19;99778.56;5047412;28;20114;-64
2023/12/01 08:26:04;;;;;;;65.10;35.28;;;;;;;4.14;89.25;99788.53;5049357;28;20067;-63
2023/12/01 08:28:31;;;;;;;62.70;36.70;;;;;;;4.27;89.48;99787.81;5051304;28;20045;-63
2023/12/01 08:30:58;;;;;;;66.55;36.15;;;;;;;4.03;90.00;99790.56;5045844;28;20049;-62
2023/12/01 08:33:26;;;;;;;65.35;37.90;;;;;;;3.98;90.50;99792.53;5054745;28;20061;-63
2023/12/01 08:35:53;;;;;;;62.85;36.47;;;;;;;3.97;90.77;99780.03;5048989;28;20132;-62
2023/12/01 08:38:20;;;;;;;67.43;36.22;;;;;;;4.13;90.69;99781.47;5037169;28;20061;-64
2023/12/01 08:40:49;;;;;;;69.20;37.70;;;;;;;3.96;90.17;99789.31;5051012;28;20057;-63
2023/12/01 08:43:21;;;;;;;69.97;37.55;;;;;;;4.27;89.97;99787.81;5049408;28;20045;-62
2023/12/01 08:45:48;;;;;;;73.22;37.55;;;;;;;4.23;90.33;99787.59;5052356;28;20066;-63
2023/12/01 08:48:16;;;;;;;68.43;38.20;;;;;;;4.49;89.06;99788.00;5054772;28;20057;-62
2023/12/01 08:50:47;;;;;;;63.58;35.72;;;;;;;4.67;87.87;99789.91;5058320;28;20397;-63
2023/12/01 08:53:17;;;;;;;67.72;36.63;;;;;;;4.56;86.81;99791.16;5051643;28;20045;-63
2023/12/01 08:55:44;;;;;;;65.28;36.20;;;;;;;4.75;87.08;99789.22;5052378;28;20048;-61
2023/12/01 08:58:11;;;;;;;66.47;36.40;;;;;;;4.88;86.63;99782.19;5052064;28;20060;-64
2023/12/01 09:00:40;;;;;;;69.47;37.38;;;;;;;5.16;85.35;99781.16;5055620;28;20041;-62
2023/12/01 09:03:07;;;;;;;64.97;37.28;;;;;;;4.74;85.34;99784.06;5052247;28;20419;-61
2023/12/01 09:05:35;;;;;;;70.72;38.53;;;;;;;4.68;85.95;99782.53;5056725;28;20151;-62
2023/12/01 09:08:05;;;;;;;62.22;36.97;;;;;;;4.78;86.45;99782.38;5051155;28;20040;-62
2023/12/01 09:10:33;;;;;;;67.75;37.80;;;;;;;4.76;86.37;99779.91;5050778;28;20384;-62
2023/12/01 09:13:00;;;;;;;62.35;36.85;;;;;;;5.00;85.67;99779.81;5050594;28;20052;-62
2023/12/01 09:15:30;;;;;;;67.70;38.38;;;;;;;5.00;85.66;99788.00;5059171;28;20059;-62
2023/12/01 09:17:57;;;;;;;72.68;38.22;;;;;;;4.98;85.23;99787.47;5056706;28;20075;-62
2023/12/01 09:20:24;;;;;;;74.75;39.08;;;;;;;4.90;84.13;99788.19;5055466;28;20052;-62
2023/12/01 09:22:52;;;;;;;72.47;39.40;;;;;;;4.43;86.41;99797.34;5056032;28;20148;-62
2023/12/01 09:25:19;;;;;;;81.47;40.08;;;;;;;4.45;87.43;99793.25;5057664;28;20053;-62
2023/12/01 09:27:47;;;;;;;76.70;39.20;;;;;;;4.55;86.48;99801.25;5064977;28;20053;-62
2023/12/01 09:30:16;;;;;;;70.88;41.15;;;;;;;4.32;87.43;99804.88;5060322;28;20060;-62
2023/12/01 09:32:45;;;;;;;71.45;39.72;;;;;;;4.55;87.38;99809.44;5058547;28;20048;-62
2023/12/01 09:35:15;;;;;;;79.47;39.38;;;;;;;4.68;86.54;99818.78;5056335;28;20052;-62
2023/12/01 09:38:11;;;;;;;73.50;41.13;;;;;;;4.37;86.47;99823.91;5040161;28;20056;-64
2023/12/01 09:40:42;;;;;;;72.80;39.95;;;;;;;4.28;87.19;99828.38;5054448;28;20132;-62
2023/12/01 09:43:12;;;;;;;67.15;37.35;;;;;;;4.34;86.99;99829.94;5051638;28;20048;-63
2023/12/01 09:45:42;;;;;;;;;;;;;;;4.48;86.32;99832.75;5055553;28;20049;-63
2023/12/01 09:48:14;;;;;;;69.55;38.30;;;;;;;4.21;86.98;99838.84;5048557;28;19921;-64
2023/12/01 09:50:42;;;;;;;68.28;37.72;;;;;;;4.37;87.23;99837.53;5058948;28;20041;-63
2023/12/01 09:53:11;;;;;;;69.03;38.13;;;;;;;4.22;86.71;99856.81;5049450;28;20080;-62
2023/12/01 09:55:38;;;;;;;90.20;38.78;;;;;;;4.22;87.69;99847.84;5048695;28;20054;-64
2023/12/01 09:58:06;;;;;;;73.47;37.38;;;;;;;4.48;86.88;99860.81;5057285;28;20052;-63
2023/12/01 10:00:33;;;;;;;70.20;39.70;;;;;;;4.44;86.04;99858.97;5044976;28;20531;-64
2023/12/01 10:03:01;;;;;;;74.45;39.63;;;;;;;4.50;86.03;99863.22;5049910;28;20045;-64
2023/12/01 10:05:34;;;;;;;79.78;44.85;;;;;;;4.53;86.08;99865.41;5050895;28;20053;-63
2023/12/01 10:08:04;;;;;;;72.75;39.72;;;;;;;4.72;85.03;99870.84;5057364;28;20059;-65
2023/12/01 10:10:31;;;;;;;75.93;40.28;;;;;;;4.35;85.15;99888.81;5055994;28;20056;-63
2023/12/01 10:13:04;;;;;;;75.57;39.38;;;;;;;4.22;86.84;99883.28;5049064;28;20673;-63
2023/12/01 10:15:38;;;;;;;77.13;40.08;;;;;;;4.38;86.34;99882.75;5050105;28;20057;-63
2023/12/01 10:18:15;;;;;;;68.32;38.50;;;;;;;4.54;85.01;99881.47;5048714;28;20436;-63
2023/12/01 10:21:07;;;;;;;76.68;41.65;;;;;;;4.45;85.53;99879.66;5062558;28;20045;-63
2023/12/01 10:23:36;;;;;;;87.75;41.80;;;;;;;4.16;86.48;99873.53;5061351;28;20080;-63
2023/12/01 10:26:04;;;;;;;72.95;40.47;;;;;;;4.45;85.81;99880.50;5048992;28;20435;-63
2023/12/01 10:28:40;;;;;;;74.22;39.67;;;;;;;4.23;86.35;99884.88;5054990;28;20547;-63
2023/12/01 10:31:08;;;;;;;82.03;40.92;;;;;;;4.06;87.17;99885.34;5044360;28;20053;-64
2023/12/01 10:33:36;;;;;;;75.78;39.88;;;;;;;4.07;86.83;99881.53;5055221;28;20045;-61
2023/12/01 10:36:08;;;;;;;79.43;41.03;;;;;;;4.05;87.42;99891.09;5047767;28;20036;-64
2023/12/01 10:38:39;;;;;;;83.97;42.22;;;;;;;4.11;87.57;99876.31;5053781;28;20057;-64
2023/12/01 10:41:09;;;;;;;75.28;40.70;;;;;;;4.19;86.56;99890.09;5033687;28;20057;-64
2023/12/01 10:43:36;;;;;;;;;;;;;;;4.22;87.09;99873.16;5053660;28;20144;-65
2023/12/01 10:46:05;;;;;;;75.90;40.28;;;;;;;3.98;87.56;99887.91;5040686;28;20292;-64
2023/12/01 10:48:34;;;;;;;74.35;41.65;;;;;;;4.00;88.01;99885.69;5047226;28;20037;-64
2023/12/01 10:51:05;;;;;;;73.07;37.67;;;;;;;3.91;87.15;99887.44;5046211;28;20049;-64
2023/12/01 10:53:34;;;;;;;75.47;41.28;;;;;;;4.14;87.01;99889.34;5046169;28;20045;-62
2023/12/01 10:56:04;;;;;;;66.85;34.88;;;;;;;3.92;87.12;99889.06;5046739;28;20056;-63
2023/12/01 10:58:35;;;;;;;64.63;36.28;;;;;;;3.92;87.02;99889.06;5044910;28;20049;-62
2023/12/01 11:01:03;;;;;;;69.22;37.70;;;;;;;4.10;86.95;99886.41;5041691;28;20060;-63
2023/12/01 11:03:31;;;;;;;63.70;36.50;;;;;;;4.10;86.55;99886.41;5041127;28;20510;-62
2023/12/01 11:06:04;;;;;;;65.78;37.13;;;;;;;4.36;85.03;99874.06;5048521;28;20392;-62
2023/12/01 11:08:51;;;;;;;64.88;36.10;;;;;;;4.20;85.44;99867.19;5045296;28;20052;-62
2023/12/01 11:12:05;;;;;;;78.38;37.97;;;;;;;4.32;85.01;99873.03;5044568;28;20123;-63
2023/12/01 11:14:33;;;;;;;64.20;35.42;;;;;;;4.42;85.38;99866.63;5022852;28;20049;-64
2023/12/01 11:17:01;;;;;;;67.82;37.25;;;;;;;4.03;85.26;99876.94;5045078;28;20445;-63
2023/12/01 11:19:34;;;;;;;71.80;37.85;;;;;;;4.09;86.68;99867.63;5048402;28;20060;-63
2023/12/01 11:22:23;;;;;;;72.25;40.35;;;;;;;4.05;86.26;99867.38;5040431;28;20049;-62
2023/12/01 11:24:50;;;;;;;74.88;40.58;;;;;;;3.87;87.21;99859.97;5051508;28;20059;-62
2023/12/01 11:27:18;;;;;;;73.00;40.75;;;;;;;3.89;87.55;99863.22;5047785;28;20049;-62
2023/12/01 11:30:08;;;;;;;79.38;40.20;;;;;;;3.88;87.58;99858.06;5047570;28;20072;-64
2023/12/01 11:32:40;;;;;;;72.63;39.25;;;;;;;3.72;88.17;99854.69;5066824;28;20060;-62
2023/12/01 11:35:09;;;;;;;78.53;41.38;;;;;;;3.72;88.68;99853.88;5052702;28;20056;-62
2023/12/01 11:38:06;;;;;;;75.33;40.57;;;;;;;3.47;89.48;99848.72;5046206;28;20053;-63
2023/12/01 11:40:40;;;;;;;70.65;40.20;;;;;;;3.50;90.05;99846.25;5026573;28;20064;-64
2023/12/01 11:43:09;;;;;;;69.70;38.50;;;;;;;3.60;89.76;99845.31;5049638;28;20053;-65
2023/12/01 11:45:47;;;;;;;73.72;37.30;;;;;;;3.74;88.92;99846.25;5043060;28;20057;-68
2023/12/01 11:48:14;;;;;;;84.10;38.65;;;;;;;3.94;87.66;99838.63;5047081;28;20060;-65
2023/12/01 11:50:42;;;;;;;107.65;42.83;;;;;;;4.01;88.54;99847.25;5041223;28;20473;-63
2023/12/01 11:53:13;;;;;;;76.53;37.42;;;;;;;3.88;86.92;99849.88;5040529;28;20180;-65
2023/12/01 11:55:41;;;;;;;83.60;37.83;;;;;;;3.98;86.98;99855.22;5044845;28;20049;-63
2023/12/01 11:58:08;;;;;;;89.85;39.05;;;;;;;4.01;88.47;99847.25;5046218;28;20049;-63
2023/12/01 12:00:35;;;;;;;96.38;41.97;;;;;;;4.41;87.23;99854.91;5045228;28;20060;-63